sensor_id;sensor_type;location;lat;lon;timestamp;P1;durP1;ratioP1;P2;durP2;ratioP2
22320;SDS011;11328;53.928;18.522;2023-02-20T00:01:32;6.18;;;1.70;;
22320;SDS011;11328;53.928;18.522;2023-02-20T00:03:59;5.57;;;1.70;;
22320;SDS011;11328;53.928;18.522;2023-02-20T00:06:25;9.40;;;1.90;;
22320;SDS011;11328;53.928;18.522;2023-02-20T00:08:52;10.93;;;1.88;;
22320;SDS011;11328;53.928;18.522;2023-02-20T00:11:19;10.30;;;1.88;;
22320;SDS011;11328;53.928;18.522;2023-02-20T00:13:47;8.60;;;1.70;;
22320;SDS011;11328;53.928;18.522;2023-02-20T00:16:15;6.80;;;1.75;;
22320;SDS011;11328;53.928;18.522;2023-02-20T00:18:42;11.63;;;1.98;;
22320;SDS011;11328;53.928;18.522;2023-02-20T00:21:10;8.00;;;1.60;;
22320;SDS011;11328;53.928;18.522;2023-02-20T00:23:37;6.10;;;1.52;;
22320;SDS011;11328;53.928;18.522;2023-02-20T00:26:07;9.98;;;1.73;;
22320;SDS011;11328;53.928;18.522;2023-02-20T00:28:39;5.90;;;1.33;;
22320;SDS011;11328;53.928;18.522;2023-02-20T00:31:11;8.25;;;1.60;;
22320;SDS011;11328;53.928;18.522;2023-02-20T00:33:43;6.07;;;1.48;;
22320;SDS011;11328;53.928;18.522;2023-02-20T00:36:17;11.68;;;2.08;;
22320;SDS011;11328;53.928;18.522;2023-02-20T00:38:45;6.65;;;1.80;;
22320;SDS011;11328;53.928;18.522;2023-02-20T00:41:13;5.72;;;1.75;;
22320;SDS011;11328;53.928;18.522;2023-02-20T00:43:40;8.10;;;1.88;;
22320;SDS011;11328;53.928;18.522;2023-02-20T00:46:11;5.13;;;1.45;;
22320;SDS011;11328;53.928;18.522;2023-02-20T00:48:40;6.65;;;1.98;;
22320;SDS011;11328;53.928;18.522;2023-02-20T00:51:08;7.85;;;1.98;;
22320;SDS011;11328;53.928;18.522;2023-02-20T00:53:35;8.13;;;1.88;;
22320;SDS011;11328;53.928;18.522;2023-02-20T00:56:01;10.68;;;2.10;;
22320;SDS011;11328;53.928;18.522;2023-02-20T00:58:28;8.38;;;1.50;;
22320;SDS011;11328;53.928;18.522;2023-02-20T01:00:55;3.78;;;1.20;;
22320;SDS011;11328;53.928;18.522;2023-02-20T01:03:22;11.73;;;1.88;;
22320;SDS011;11328;53.928;18.522;2023-02-20T01:05:49;6.53;;;1.83;;
22320;SDS011;11328;53.928;18.522;2023-02-20T01:08:16;6.40;;;1.73;;
22320;SDS011;11328;53.928;18.522;2023-02-20T01:10:43;11.05;;;2.08;;
22320;SDS011;11328;53.928;18.522;2023-02-20T01:13:10;10.35;;;1.90;;
22320;SDS011;11328;53.928;18.522;2023-02-20T01:15:37;7.57;;;1.52;;
22320;SDS011;11328;53.928;18.522;2023-02-20T01:18:04;9.65;;;2.13;;
22320;SDS011;11328;53.928;18.522;2023-02-20T01:20:31;8.40;;;1.73;;
22320;SDS011;11328;53.928;18.522;2023-02-20T01:22:58;6.30;;;1.90;;
22320;SDS011;11328;53.928;18.522;2023-02-20T01:25:25;6.28;;;1.50;;
22320;SDS011;11328;53.928;18.522;2023-02-20T01:27:52;7.53;;;2.08;;
22320;SDS011;11328;53.928;18.522;2023-02-20T01:30:19;6.03;;;1.63;;
22320;SDS011;11328;53.928;18.522;2023-02-20T01:32:46;11.77;;;2.55;;
22320;SDS011;11328;53.928;18.522;2023-02-20T01:35:13;8.50;;;1.80;;
22320;SDS011;11328;53.928;18.522;2023-02-20T01:37:41;8.15;;;1.58;;
22320;SDS011;11328;53.928;18.522;2023-02-20T01:40:15;7.63;;;1.67;;
22320;SDS011;11328;53.928;18.522;2023-02-20T01:42:49;8.05;;;2.00;;
22320;SDS011;11328;53.928;18.522;2023-02-20T01:45:37;8.23;;;1.88;;
22320;SDS011;11328;53.928;18.522;2023-02-20T01:48:04;8.60;;;1.90;;
22320;SDS011;11328;53.928;18.522;2023-02-20T01:50:36;6.65;;;1.75;;
22320;SDS011;11328;53.928;18.522;2023-02-20T01:53:13;7.13;;;2.00;;
22320;SDS011;11328;53.928;18.522;2023-02-20T01:55:52;6.18;;;2.10;;
22320;SDS011;11328;53.928;18.522;2023-02-20T01:58:28;8.17;;;2.03;;
22320;SDS011;11328;53.928;18.522;2023-02-20T02:01:15;8.45;;;2.00;;
22320;SDS011;11328;53.928;18.522;2023-02-20T02:03:44;8.30;;;1.70;;
22320;SDS011;11328;53.928;18.522;2023-02-20T02:06:18;6.38;;;1.70;;
22320;SDS011;11328;53.928;18.522;2023-02-20T02:08:45;6.50;;;2.00;;
22320;SDS011;11328;53.928;18.522;2023-02-20T02:11:15;7.20;;;1.85;;
22320;SDS011;11328;53.928;18.522;2023-02-20T02:13:48;6.95;;;1.95;;
22320;SDS011;11328;53.928;18.522;2023-02-20T02:16:36;6.35;;;1.75;;
22320;SDS011;11328;53.928;18.522;2023-02-20T02:34:03;7.20;;;2.03;;
22320;SDS011;11328;53.928;18.522;2023-02-20T02:47:55;10.48;;;2.25;;
22320;SDS011;11328;53.928;18.522;2023-02-20T02:50:28;9.82;;;2.33;;
22320;SDS011;11328;53.928;18.522;2023-02-20T02:53:05;7.50;;;1.95;;
22320;SDS011;11328;53.928;18.522;2023-02-20T02:55:34;9.63;;;2.10;;
22320;SDS011;11328;53.928;18.522;2023-02-20T02:58:02;7.47;;;2.28;;
22320;SDS011;11328;53.928;18.522;2023-02-20T03:03:24;6.55;;;1.83;;
22320;SDS011;11328;53.928;18.522;2023-02-20T03:06:07;6.78;;;2.08;;
22320;SDS011;11328;53.928;18.522;2023-02-20T03:08:44;7.43;;;2.28;;
22320;SDS011;11328;53.928;18.522;2023-02-20T03:11:23;6.13;;;2.15;;
22320;SDS011;11328;53.928;18.522;2023-02-20T03:13:56;9.02;;;2.67;;
22320;SDS011;11328;53.928;18.522;2023-02-20T03:19:40;8.98;;;2.30;;
22320;SDS011;11328;53.928;18.522;2023-02-20T03:24:47;10.18;;;2.30;;
22320;SDS011;11328;53.928;18.522;2023-02-20T03:27:22;7.05;;;2.33;;
22320;SDS011;11328;53.928;18.522;2023-02-20T03:29:52;9.10;;;1.92;;
22320;SDS011;11328;53.928;18.522;2023-02-20T03:35:13;8.35;;;2.08;;
22320;SDS011;11328;53.928;18.522;2023-02-20T03:37:59;8.07;;;2.10;;
22320;SDS011;11328;53.928;18.522;2023-02-20T03:40:50;8.95;;;2.05;;
22320;SDS011;11328;53.928;18.522;2023-02-20T03:43:36;6.65;;;2.17;;
22320;SDS011;11328;53.928;18.522;2023-02-20T03:46:07;8.63;;;2.25;;
22320;SDS011;11328;53.928;18.522;2023-02-20T03:51:07;10.07;;;2.60;;
22320;SDS011;11328;53.928;18.522;2023-02-20T03:53:37;5.85;;;2.10;;
22320;SDS011;11328;53.928;18.522;2023-02-20T03:56:11;6.88;;;2.20;;
22320;SDS011;11328;53.928;18.522;2023-02-20T03:58:45;10.35;;;2.30;;
22320;SDS011;11328;53.928;18.522;2023-02-20T04:01:21;6.57;;;2.00;;
22320;SDS011;11328;53.928;18.522;2023-02-20T04:03:52;10.00;;;2.45;;
22320;SDS011;11328;53.928;18.522;2023-02-20T04:06:24;7.97;;;2.10;;
22320;SDS011;11328;53.928;18.522;2023-02-20T04:11:42;9.02;;;2.28;;
22320;SDS011;11328;53.928;18.522;2023-02-20T04:14:14;11.25;;;2.10;;
22320;SDS011;11328;53.928;18.522;2023-02-20T04:16:48;6.55;;;2.05;;
22320;SDS011;11328;53.928;18.522;2023-02-20T04:19:23;10.00;;;2.10;;
22320;SDS011;11328;53.928;18.522;2023-02-20T04:21:51;7.35;;;2.30;;
22320;SDS011;11328;53.928;18.522;2023-02-20T04:24:30;6.38;;;2.03;;
22320;SDS011;11328;53.928;18.522;2023-02-20T04:27:08;11.18;;;2.50;;
22320;SDS011;11328;53.928;18.522;2023-02-20T04:29:37;6.72;;;2.10;;
22320;SDS011;11328;53.928;18.522;2023-02-20T04:32:04;8.30;;;2.47;;
22320;SDS011;11328;53.928;18.522;2023-02-20T04:34:31;7.63;;;2.30;;
22320;SDS011;11328;53.928;18.522;2023-02-20T04:37:06;7.97;;;2.33;;
22320;SDS011;11328;53.928;18.522;2023-02-20T04:39:39;10.65;;;2.65;;
22320;SDS011;11328;53.928;18.522;2023-02-20T04:42:06;9.18;;;2.70;;
22320;SDS011;11328;53.928;18.522;2023-02-20T04:44:33;7.88;;;2.70;;
22320;SDS011;11328;53.928;18.522;2023-02-20T04:47:03;9.55;;;2.70;;
22320;SDS011;11328;53.928;18.522;2023-02-20T04:49:33;12.98;;;3.63;;
22320;SDS011;11328;53.928;18.522;2023-02-20T04:52:00;12.93;;;2.88;;
22320;SDS011;11328;53.928;18.522;2023-02-20T04:54:27;10.38;;;3.00;;
22320;SDS011;11328;53.928;18.522;2023-02-20T04:56:54;9.05;;;3.25;;
22320;SDS011;11328;53.928;18.522;2023-02-20T04:59:21;14.02;;;3.35;;
22320;SDS011;11328;53.928;18.522;2023-02-20T05:01:48;8.00;;;2.97;;
22320;SDS011;11328;53.928;18.522;2023-02-20T05:04:17;9.93;;;2.92;;
22320;SDS011;11328;53.928;18.522;2023-02-20T05:06:49;8.93;;;2.90;;
22320;SDS011;11328;53.928;18.522;2023-02-20T05:09:19;6.00;;;2.42;;
22320;SDS011;11328;53.928;18.522;2023-02-20T05:11:47;8.52;;;2.80;;
22320;SDS011;11328;53.928;18.522;2023-02-20T05:14:15;10.60;;;2.70;;
22320;SDS011;11328;53.928;18.522;2023-02-20T05:16:42;9.10;;;2.80;;
22320;SDS011;11328;53.928;18.522;2023-02-20T05:19:11;9.57;;;3.08;;
22320;SDS011;11328;53.928;18.522;2023-02-20T05:21:45;9.77;;;3.00;;
22320;SDS011;11328;53.928;18.522;2023-02-20T05:24:30;9.93;;;3.20;;
22320;SDS011;11328;53.928;18.522;2023-02-20T05:26:58;14.02;;;3.83;;
22320;SDS011;11328;53.928;18.522;2023-02-20T05:29:25;11.68;;;3.50;;
22320;SDS011;11328;53.928;18.522;2023-02-20T05:31:52;6.72;;;3.30;;
22320;SDS011;11328;53.928;18.522;2023-02-20T05:34:19;9.30;;;3.10;;
22320;SDS011;11328;53.928;18.522;2023-02-20T05:36:51;9.63;;;3.60;;
22320;SDS011;11328;53.928;18.522;2023-02-20T05:39:19;8.52;;;3.47;;
22320;SDS011;11328;53.928;18.522;2023-02-20T05:41:46;11.60;;;3.70;;
22320;SDS011;11328;53.928;18.522;2023-02-20T05:44:14;10.88;;;3.63;;
22320;SDS011;11328;53.928;18.522;2023-02-20T05:46:41;10.25;;;3.65;;
22320;SDS011;11328;53.928;18.522;2023-02-20T05:49:09;13.15;;;4.20;;
22320;SDS011;11328;53.928;18.522;2023-02-20T05:51:37;11.57;;;4.63;;
22320;SDS011;11328;53.928;18.522;2023-02-20T05:54:04;10.82;;;3.70;;
22320;SDS011;11328;53.928;18.522;2023-02-20T05:56:31;10.38;;;3.95;;
22320;SDS011;11328;53.928;18.522;2023-02-20T05:58:59;9.45;;;3.70;;
22320;SDS011;11328;53.928;18.522;2023-02-20T06:01:27;13.43;;;4.00;;
22320;SDS011;11328;53.928;18.522;2023-02-20T06:03:57;9.10;;;3.30;;
22320;SDS011;11328;53.928;18.522;2023-02-20T06:06:33;10.82;;;3.15;;
22320;SDS011;11328;53.928;18.522;2023-02-20T06:09:06;8.68;;;2.95;;
22320;SDS011;11328;53.928;18.522;2023-02-20T06:11:40;6.40;;;2.88;;
22320;SDS011;11328;53.928;18.522;2023-02-20T06:14:14;13.13;;;3.35;;
22320;SDS011;11328;53.928;18.522;2023-02-20T06:16:43;11.15;;;3.25;;
22320;SDS011;11328;53.928;18.522;2023-02-20T06:19:16;11.93;;;3.50;;
22320;SDS011;11328;53.928;18.522;2023-02-20T06:21:49;10.13;;;3.00;;
22320;SDS011;11328;53.928;18.522;2023-02-20T06:24:23;11.98;;;5.22;;
22320;SDS011;11328;53.928;18.522;2023-02-20T06:26:51;8.63;;;3.20;;
22320;SDS011;11328;53.928;18.522;2023-02-20T06:29:18;12.23;;;4.40;;
22320;SDS011;11328;53.928;18.522;2023-02-20T06:31:46;7.55;;;3.25;;
22320;SDS011;11328;53.928;18.522;2023-02-20T06:34:13;9.73;;;4.05;;
22320;SDS011;11328;53.928;18.522;2023-02-20T06:36:42;10.93;;;4.05;;
22320;SDS011;11328;53.928;18.522;2023-02-20T06:39:09;12.55;;;4.40;;
22320;SDS011;11328;53.928;18.522;2023-02-20T06:41:38;6.93;;;3.08;;
22320;SDS011;11328;53.928;18.522;2023-02-20T06:44:05;31.50;;;15.93;;
22320;SDS011;11328;53.928;18.522;2023-02-20T06:46:33;13.02;;;4.15;;
22320;SDS011;11328;53.928;18.522;2023-02-20T06:49:00;8.57;;;2.97;;
22320;SDS011;11328;53.928;18.522;2023-02-20T06:51:29;15.52;;;6.43;;
22320;SDS011;11328;53.928;18.522;2023-02-20T06:53:59;7.95;;;3.58;;
22320;SDS011;11328;53.928;18.522;2023-02-20T06:56:28;8.70;;;3.15;;
22320;SDS011;11328;53.928;18.522;2023-02-20T06:58:58;7.72;;;2.90;;
22320;SDS011;11328;53.928;18.522;2023-02-20T07:01:28;6.22;;;2.80;;
22320;SDS011;11328;53.928;18.522;2023-02-20T07:04:02;8.73;;;3.58;;
22320;SDS011;11328;53.928;18.522;2023-02-20T07:06:29;5.93;;;2.88;;
22320;SDS011;11328;53.928;18.522;2023-02-20T07:08:56;10.90;;;4.55;;
22320;SDS011;11328;53.928;18.522;2023-02-20T07:11:23;10.57;;;3.85;;
22320;SDS011;11328;53.928;18.522;2023-02-20T07:13:50;8.32;;;3.42;;
22320;SDS011;11328;53.928;18.522;2023-02-20T07:16:45;11.15;;;5.15;;
22320;SDS011;11328;53.928;18.522;2023-02-20T07:19:39;6.72;;;3.00;;
22320;SDS011;11328;53.928;18.522;2023-02-20T07:22:34;10.40;;;4.38;;
22320;SDS011;11328;53.928;18.522;2023-02-20T07:25:28;8.75;;;3.42;;
22320;SDS011;11328;53.928;18.522;2023-02-20T07:27:55;6.47;;;2.97;;
22320;SDS011;11328;53.928;18.522;2023-02-20T07:30:22;7.38;;;3.10;;
22320;SDS011;11328;53.928;18.522;2023-02-20T07:32:50;6.32;;;2.78;;
22320;SDS011;11328;53.928;18.522;2023-02-20T07:35:17;7.72;;;3.08;;
22320;SDS011;11328;53.928;18.522;2023-02-20T07:37:44;7.05;;;2.90;;
22320;SDS011;11328;53.928;18.522;2023-02-20T07:40:11;9.43;;;4.10;;
22320;SDS011;11328;53.928;18.522;2023-02-20T07:42:38;6.93;;;3.08;;
22320;SDS011;11328;53.928;18.522;2023-02-20T07:45:05;7.00;;;3.17;;
22320;SDS011;11328;53.928;18.522;2023-02-20T07:47:32;8.32;;;3.70;;
22320;SDS011;11328;53.928;18.522;2023-02-20T07:49:59;8.98;;;3.75;;
22320;SDS011;11328;53.928;18.522;2023-02-20T07:52:27;14.80;;;4.65;;
22320;SDS011;11328;53.928;18.522;2023-02-20T07:54:54;7.32;;;3.50;;
22320;SDS011;11328;53.928;18.522;2023-02-20T07:57:21;12.27;;;5.07;;
22320;SDS011;11328;53.928;18.522;2023-02-20T07:59:48;8.65;;;3.80;;
22320;SDS011;11328;53.928;18.522;2023-02-20T08:02:15;7.13;;;3.45;;
22320;SDS011;11328;53.928;18.522;2023-02-20T08:04:42;7.70;;;3.70;;
22320;SDS011;11328;53.928;18.522;2023-02-20T08:07:09;9.30;;;3.85;;
22320;SDS011;11328;53.928;18.522;2023-02-20T08:09:36;6.45;;;3.60;;
22320;SDS011;11328;53.928;18.522;2023-02-20T08:12:03;7.50;;;4.00;;
22320;SDS011;11328;53.928;18.522;2023-02-20T08:14:30;9.20;;;4.20;;
22320;SDS011;11328;53.928;18.522;2023-02-20T08:16:57;7.10;;;4.00;;
22320;SDS011;11328;53.928;18.522;2023-02-20T08:19:24;10.88;;;5.70;;
22320;SDS011;11328;53.928;18.522;2023-02-20T08:21:50;9.70;;;4.45;;
22320;SDS011;11328;53.928;18.522;2023-02-20T08:24:17;9.32;;;4.53;;
22320;SDS011;11328;53.928;18.522;2023-02-20T08:26:44;8.25;;;3.90;;
22320;SDS011;11328;53.928;18.522;2023-02-20T08:29:14;7.55;;;3.75;;
22320;SDS011;11328;53.928;18.522;2023-02-20T08:31:42;8.70;;;4.57;;
22320;SDS011;11328;53.928;18.522;2023-02-20T08:34:09;7.38;;;4.20;;
22320;SDS011;11328;53.928;18.522;2023-02-20T08:36:36;8.27;;;4.05;;
22320;SDS011;11328;53.928;18.522;2023-02-20T08:39:05;7.57;;;3.60;;
22320;SDS011;11328;53.928;18.522;2023-02-20T08:41:32;8.52;;;3.97;;
22320;SDS011;11328;53.928;18.522;2023-02-20T08:43:59;7.22;;;3.85;;
22320;SDS011;11328;53.928;18.522;2023-02-20T08:46:26;7.82;;;4.05;;
22320;SDS011;11328;53.928;18.522;2023-02-20T08:48:53;7.28;;;3.65;;
22320;SDS011;11328;53.928;18.522;2023-02-20T08:51:20;7.70;;;4.03;;
22320;SDS011;11328;53.928;18.522;2023-02-20T08:53:47;7.43;;;3.90;;
22320;SDS011;11328;53.928;18.522;2023-02-20T08:56:16;6.32;;;3.80;;
22320;SDS011;11328;53.928;18.522;2023-02-20T08:58:47;7.72;;;4.00;;
22320;SDS011;11328;53.928;18.522;2023-02-20T09:01:13;6.25;;;3.63;;
22320;SDS011;11328;53.928;18.522;2023-02-20T09:03:40;7.68;;;3.88;;
22320;SDS011;11328;53.928;18.522;2023-02-20T09:06:08;7.97;;;3.75;;
22320;SDS011;11328;53.928;18.522;2023-02-20T09:08:36;8.52;;;3.90;;
22320;SDS011;11328;53.928;18.522;2023-02-20T09:11:03;6.88;;;3.83;;
22320;SDS011;11328;53.928;18.522;2023-02-20T09:13:30;8.02;;;3.97;;
22320;SDS011;11328;53.928;18.522;2023-02-20T09:15:57;7.63;;;3.80;;
22320;SDS011;11328;53.928;18.522;2023-02-20T09:18:24;7.13;;;4.07;;
22320;SDS011;11328;53.928;18.522;2023-02-20T09:20:51;7.60;;;3.92;;
22320;SDS011;11328;53.928;18.522;2023-02-20T09:23:19;8.25;;;4.47;;
22320;SDS011;11328;53.928;18.522;2023-02-20T09:25:49;9.55;;;4.30;;
22320;SDS011;11328;53.928;18.522;2023-02-20T09:28:16;8.18;;;4.45;;
22320;SDS011;11328;53.928;18.522;2023-02-20T09:30:43;8.68;;;4.43;;
22320;SDS011;11328;53.928;18.522;2023-02-20T09:33:10;10.15;;;5.00;;
22320;SDS011;11328;53.928;18.522;2023-02-20T09:35:38;10.70;;;5.18;;
22320;SDS011;11328;53.928;18.522;2023-02-20T09:38:05;12.80;;;5.80;;
22320;SDS011;11328;53.928;18.522;2023-02-20T09:40:32;8.27;;;4.88;;
22320;SDS011;11328;53.928;18.522;2023-02-20T09:43:08;9.40;;;5.72;;
22320;SDS011;11328;53.928;18.522;2023-02-20T09:45:52;10.07;;;5.60;;
22320;SDS011;11328;53.928;18.522;2023-02-20T09:51:40;10.57;;;5.97;;
22320;SDS011;11328;53.928;18.522;2023-02-20T09:54:16;10.20;;;5.80;;
22320;SDS011;11328;53.928;18.522;2023-02-20T09:56:56;10.73;;;6.45;;
22320;SDS011;11328;53.928;18.522;2023-02-20T09:59:32;11.65;;;6.22;;
22320;SDS011;11328;53.928;18.522;2023-02-20T10:04:57;13.40;;;7.30;;
22320;SDS011;11328;53.928;18.522;2023-02-20T10:07:33;13.10;;;7.35;;
22320;SDS011;11328;53.928;18.522;2023-02-20T10:10:22;11.65;;;7.20;;
22320;SDS011;11328;53.928;18.522;2023-02-20T10:16:20;12.45;;;7.65;;
22320;SDS011;11328;53.928;18.522;2023-02-20T10:28:13;14.02;;;9.35;;
22320;SDS011;11328;53.928;18.522;2023-02-20T10:33:26;16.33;;;9.73;;
22320;SDS011;11328;53.928;18.522;2023-02-20T10:36:01;15.98;;;9.50;;
22320;SDS011;11328;53.928;18.522;2023-02-20T10:39:04;16.27;;;10.13;;
22320;SDS011;11328;53.928;18.522;2023-02-20T10:41:43;16.40;;;9.85;;
22320;SDS011;11328;53.928;18.522;2023-02-20T10:44:21;16.85;;;10.50;;
22320;SDS011;11328;53.928;18.522;2023-02-20T10:50:08;16.65;;;10.43;;
22320;SDS011;11328;53.928;18.522;2023-02-20T10:52:46;16.58;;;10.57;;
22320;SDS011;11328;53.928;18.522;2023-02-20T10:55:27;19.05;;;11.50;;
22320;SDS011;11328;53.928;18.522;2023-02-20T11:00:59;18.40;;;10.80;;
22320;SDS011;11328;53.928;18.522;2023-02-20T11:03:38;20.77;;;11.88;;
22320;SDS011;11328;53.928;18.522;2023-02-20T11:06:18;18.73;;;12.43;;
22320;SDS011;11328;53.928;18.522;2023-02-20T11:08:48;20.20;;;11.95;;
22320;SDS011;11328;53.928;18.522;2023-02-20T11:11:29;20.23;;;11.70;;
22320;SDS011;11328;53.928;18.522;2023-02-20T11:14:04;16.73;;;10.52;;
22320;SDS011;11328;53.928;18.522;2023-02-20T11:16:42;17.25;;;10.75;;
22320;SDS011;11328;53.928;18.522;2023-02-20T11:19:26;18.92;;;11.40;;
22320;SDS011;11328;53.928;18.522;2023-02-20T11:22:03;21.50;;;11.65;;
22320;SDS011;11328;53.928;18.522;2023-02-20T11:27:06;16.23;;;10.48;;
22320;SDS011;11328;53.928;18.522;2023-02-20T11:29:55;17.13;;;10.25;;
22320;SDS011;11328;53.928;18.522;2023-02-20T11:32:46;20.15;;;11.25;;
22320;SDS011;11328;53.928;18.522;2023-02-20T11:38:18;18.40;;;10.70;;
22320;SDS011;11328;53.928;18.522;2023-02-20T11:40:42;17.80;;;10.48;;
22320;SDS011;11328;53.928;18.522;2023-02-20T11:43:19;15.80;;;10.27;;
22320;SDS011;11328;53.928;18.522;2023-02-20T11:46:12;17.27;;;10.18;;
22320;SDS011;11328;53.928;18.522;2023-02-20T11:51:41;17.83;;;10.38;;
22320;SDS011;11328;53.928;18.522;2023-02-20T11:54:14;20.08;;;11.90;;
22320;SDS011;11328;53.928;18.522;2023-02-20T11:59:40;16.10;;;10.10;;
22320;SDS011;11328;53.928;18.522;2023-02-20T12:04:41;14.50;;;8.85;;
22320;SDS011;11328;53.928;18.522;2023-02-20T12:07:36;18.15;;;9.40;;
22320;SDS011;11328;53.928;18.522;2023-02-20T12:10:30;13.60;;;7.50;;
22320;SDS011;11328;53.928;18.522;2023-02-20T12:13:12;12.07;;;7.65;;
22320;SDS011;11328;53.928;18.522;2023-02-20T12:15:43;13.15;;;8.07;;
22320;SDS011;11328;53.928;18.522;2023-02-20T12:19:04;12.20;;;7.50;;
22320;SDS011;11328;53.928;18.522;2023-02-20T12:21:55;12.75;;;8.00;;
22320;SDS011;11328;53.928;18.522;2023-02-20T12:24:41;12.82;;;8.07;;
22320;SDS011;11328;53.928;18.522;2023-02-20T12:39:26;16.90;;;8.13;;
22320;SDS011;11328;53.928;18.522;2023-02-20T12:42:51;19.25;;;8.02;;
22320;SDS011;11328;53.928;18.522;2023-02-20T12:46:15;15.80;;;7.93;;
22320;SDS011;11328;53.928;18.522;2023-02-20T12:55:04;17.27;;;8.80;;
22320;SDS011;11328;53.928;18.522;2023-02-20T13:03:10;16.70;;;8.70;;
22320;SDS011;11328;53.928;18.522;2023-02-20T13:05:45;20.05;;;9.50;;
22320;SDS011;11328;53.928;18.522;2023-02-20T13:08:26;18.27;;;9.55;;
22320;SDS011;11328;53.928;18.522;2023-02-20T13:11:04;18.42;;;9.85;;
22320;SDS011;11328;53.928;18.522;2023-02-20T13:31:06;14.50;;;7.75;;
22320;SDS011;11328;53.928;18.522;2023-02-20T13:33:48;15.48;;;8.10;;
22320;SDS011;11328;53.928;18.522;2023-02-20T13:41:57;17.13;;;7.60;;
22320;SDS011;11328;53.928;18.522;2023-02-20T13:44:31;15.63;;;6.90;;
22320;SDS011;11328;53.928;18.522;2023-02-20T13:52:52;13.65;;;7.35;;
22320;SDS011;11328;53.928;18.522;2023-02-20T13:55:19;12.32;;;6.68;;
22320;SDS011;11328;53.928;18.522;2023-02-20T13:57:53;13.25;;;6.88;;
22320;SDS011;11328;53.928;18.522;2023-02-20T14:00:45;11.88;;;6.30;;
22320;SDS011;11328;53.928;18.522;2023-02-20T14:03:28;11.57;;;6.38;;
22320;SDS011;11328;53.928;18.522;2023-02-20T14:06:15;12.73;;;6.13;;
22320;SDS011;11328;53.928;18.522;2023-02-20T14:14:48;14.35;;;7.20;;
22320;SDS011;11328;53.928;18.522;2023-02-20T14:17:15;13.20;;;6.90;;
22320;SDS011;11328;53.928;18.522;2023-02-20T14:19:53;13.30;;;6.72;;
22320;SDS011;11328;53.928;18.522;2023-02-20T14:22:39;11.63;;;5.95;;
22320;SDS011;11328;53.928;18.522;2023-02-20T14:27:40;11.05;;;6.15;;
22320;SDS011;11328;53.928;18.522;2023-02-20T14:30:20;12.15;;;5.70;;
22320;SDS011;11328;53.928;18.522;2023-02-20T14:32:54;10.50;;;5.60;;
22320;SDS011;11328;53.928;18.522;2023-02-20T14:38:21;9.98;;;5.00;;
22320;SDS011;11328;53.928;18.522;2023-02-20T14:41:18;8.93;;;4.85;;
22320;SDS011;11328;53.928;18.522;2023-02-20T14:43:54;8.38;;;4.57;;
22320;SDS011;11328;53.928;18.522;2023-02-20T14:46:34;11.00;;;5.22;;
22320;SDS011;11328;53.928;18.522;2023-02-20T14:49:03;10.05;;;5.35;;
22320;SDS011;11328;53.928;18.522;2023-02-20T14:51:51;9.85;;;5.00;;
22320;SDS011;11328;53.928;18.522;2023-02-20T14:54:36;9.73;;;5.22;;
22320;SDS011;11328;53.928;18.522;2023-02-20T14:57:13;9.15;;;4.05;;
22320;SDS011;11328;53.928;18.522;2023-02-20T14:59:41;8.60;;;4.78;;
22320;SDS011;11328;53.928;18.522;2023-02-20T15:02:15;10.23;;;4.68;;
22320;SDS011;11328;53.928;18.522;2023-02-20T15:05:09;11.00;;;4.93;;
22320;SDS011;11328;53.928;18.522;2023-02-20T15:07:45;9.98;;;4.50;;
22320;SDS011;11328;53.928;18.522;2023-02-20T15:13:07;11.80;;;4.85;;
22320;SDS011;11328;53.928;18.522;2023-02-20T15:15:40;8.23;;;3.78;;
22320;SDS011;11328;53.928;18.522;2023-02-20T15:18:36;12.60;;;6.10;;
22320;SDS011;11328;53.928;18.522;2023-02-20T15:21:09;9.02;;;5.00;;
22320;SDS011;11328;53.928;18.522;2023-02-20T15:23:42;10.07;;;3.80;;
22320;SDS011;11328;53.928;18.522;2023-02-20T15:34:35;9.05;;;4.18;;
22320;SDS011;11328;53.928;18.522;2023-02-20T15:37:27;8.43;;;3.90;;
22320;SDS011;11328;53.928;18.522;2023-02-20T15:42:52;5.85;;;2.80;;
22320;SDS011;11328;53.928;18.522;2023-02-20T15:45:24;5.15;;;2.70;;
22320;SDS011;11328;53.928;18.522;2023-02-20T15:47:53;86.50;;;19.42;;
22320;SDS011;11328;53.928;18.522;2023-02-20T15:50:22;9.75;;;3.47;;
22320;SDS011;11328;53.928;18.522;2023-02-20T15:52:52;5.25;;;2.85;;
22320;SDS011;11328;53.928;18.522;2023-02-20T15:55:22;7.07;;;3.05;;
22320;SDS011;11328;53.928;18.522;2023-02-20T15:57:50;5.53;;;2.80;;
22320;SDS011;11328;53.928;18.522;2023-02-20T16:00:26;7.57;;;3.28;;
22320;SDS011;11328;53.928;18.522;2023-02-20T16:02:58;5.93;;;2.70;;
22320;SDS011;11328;53.928;18.522;2023-02-20T16:05:27;5.68;;;2.70;;
22320;SDS011;11328;53.928;18.522;2023-02-20T16:07:54;5.38;;;2.60;;
22320;SDS011;11328;53.928;18.522;2023-02-20T16:10:21;7.07;;;3.05;;
22320;SDS011;11328;53.928;18.522;2023-02-20T16:12:54;4.05;;;2.28;;
22320;SDS011;11328;53.928;18.522;2023-02-20T16:15:24;5.97;;;2.95;;
22320;SDS011;11328;53.928;18.522;2023-02-20T16:17:51;6.25;;;3.08;;
22320;SDS011;11328;53.928;18.522;2023-02-20T16:20:27;5.40;;;2.60;;
22320;SDS011;11328;53.928;18.522;2023-02-20T16:22:56;5.18;;;2.42;;
22320;SDS011;11328;53.928;18.522;2023-02-20T16:25:23;4.45;;;2.38;;
22320;SDS011;11328;53.928;18.522;2023-02-20T16:27:52;4.80;;;2.03;;
22320;SDS011;11328;53.928;18.522;2023-02-20T16:30:26;5.05;;;2.30;;
22320;SDS011;11328;53.928;18.522;2023-02-20T16:33:24;4.28;;;2.22;;
22320;SDS011;11328;53.928;18.522;2023-02-20T16:35:54;3.47;;;1.98;;
22320;SDS011;11328;53.928;18.522;2023-02-20T16:38:24;6.13;;;2.10;;
22320;SDS011;11328;53.928;18.522;2023-02-20T16:40:52;11.48;;;6.00;;
22320;SDS011;11328;53.928;18.522;2023-02-20T16:43:20;13.15;;;7.80;;
22320;SDS011;11328;53.928;18.522;2023-02-20T16:45:49;8.25;;;4.82;;
22320;SDS011;11328;53.928;18.522;2023-02-20T16:48:17;6.40;;;3.15;;
22320;SDS011;11328;53.928;18.522;2023-02-20T16:50:46;5.95;;;2.47;;
22320;SDS011;11328;53.928;18.522;2023-02-20T16:53:17;6.43;;;2.85;;
22320;SDS011;11328;53.928;18.522;2023-02-20T16:55:46;6.88;;;4.03;;
22320;SDS011;11328;53.928;18.522;2023-02-20T16:58:14;5.15;;;2.55;;
22320;SDS011;11328;53.928;18.522;2023-02-20T17:00:42;5.82;;;3.22;;
22320;SDS011;11328;53.928;18.522;2023-02-20T17:03:22;5.32;;;2.40;;
22320;SDS011;11328;53.928;18.522;2023-02-20T17:05:50;5.82;;;2.10;;
22320;SDS011;11328;53.928;18.522;2023-02-20T17:08:25;9.85;;;3.70;;
22320;SDS011;11328;53.928;18.522;2023-02-20T17:10:53;5.30;;;2.58;;
22320;SDS011;11328;53.928;18.522;2023-02-20T17:13:20;5.10;;;2.20;;
22320;SDS011;11328;53.928;18.522;2023-02-20T17:15:49;3.63;;;1.65;;
22320;SDS011;11328;53.928;18.522;2023-02-20T17:18:17;4.78;;;1.88;;
22320;SDS011;11328;53.928;18.522;2023-02-20T17:20:44;4.88;;;1.92;;
22320;SDS011;11328;53.928;18.522;2023-02-20T17:23:12;8.77;;;3.28;;
22320;SDS011;11328;53.928;18.522;2023-02-20T17:25:39;6.75;;;2.45;;
22320;SDS011;11328;53.928;18.522;2023-02-20T17:28:06;5.03;;;1.85;;
22320;SDS011;11328;53.928;18.522;2023-02-20T17:30:34;7.00;;;2.38;;
22320;SDS011;11328;53.928;18.522;2023-02-20T17:33:03;7.60;;;2.72;;
22320;SDS011;11328;53.928;18.522;2023-02-20T17:35:33;5.85;;;2.50;;
22320;SDS011;11328;53.928;18.522;2023-02-20T17:38:02;8.25;;;2.92;;
22320;SDS011;11328;53.928;18.522;2023-02-20T17:40:31;6.38;;;2.83;;
22320;SDS011;11328;53.928;18.522;2023-02-20T17:43:01;7.95;;;3.40;;